Tina-c — 2APY2 — position and weather

sailwx.info

Track history (hours):
 
Tides and Currents Weather Stations Pressure Air Temp Water Temp Dewpoint Dewpoint Depression Visibility Wind Speed Wind Dir Waves Ship Positions

Tina-c

Last reported at 2015-May-24 22:33 UTC. Time now 2015-May-25 17:36 UTC.
Position N 36°36' E 013°35'.

Length 99 m; draft 6.2 m.

Type: Cargo ship. MMSI: 235061987.

Date/timePositionNaut miles runAvg speedWind from/ knotsBaromVisibWave heightAir tempDewpointWater temp
2015-May-24 22:33N 36°36' E 013°35'1110.4
2015-May-24 21:31N 36°32' E 013°47'1110.2
2015-May-24 20:27N 36°28' E 013°60'910.2
2015-May-24 19:33N 36°25' E 014°10'1010.3
2015-May-24 18:34N 36°21' E 014°21'1010.1
2015-May-24 17:32N 36°16' E 014°33'  
2015-May-16 13:11N 31°20' E 030°05'0 0.0
2015-May-16 10:11N 31°20' E 030°05'0 0.0
2015-May-16 04:20N 31°20' E 030°05'0 0.0
2015-May-15 21:14N 31°20' E 030°05'  
Track history (hours):
 
Tides and Currents Weather Stations Pressure Air Temp Water Temp Dewpoint Dewpoint Depression Visibility Wind Speed Wind Dir Waves Ship Positions

Tina-c

Last reported at 2015-May-24 22:33 UTC. Time now 2015-May-25 17:36 UTC.
Position N 36°36' E 013°35'.

Length 99 m; draft 6.2 m.

Type: Cargo ship. MMSI: 235061987.

Date/timePositionNaut miles runAvg speedWind from/ knotsBaromVisibWave heightAir tempDewpointWater temp
2015-May-24 22:33N 36°36' E 013°35'1110.4
2015-May-24 21:31N 36°32' E 013°47'1110.2
2015-May-24 20:27N 36°28' E 013°60'910.2
2015-May-24 19:33N 36°25' E 014°10'1010.3
2015-May-24 18:34N 36°21' E 014°21'1010.1
2015-May-24 17:32N 36°16' E 014°33'  
2015-May-16 13:11N 31°20' E 030°05'0 0.0
2015-May-16 10:11N 31°20' E 030°05'0 0.0
2015-May-16 04:20N 31°20' E 030°05'0 0.0
2015-May-15 21:14N 31°20' E 030°05'  

Dump ship's entire track history